sensor_id;sensor_type;location;lat;lon;timestamp;temperature;humidity
3017;DHT22;1518;52.408;13.060;2023-02-11T00:02:24;15.60;56.50
3017;DHT22;1518;52.408;13.060;2023-02-11T00:05:15;15.70;56.50
3017;DHT22;1518;52.408;13.060;2023-02-11T00:08:03;15.80;56.40
3017;DHT22;1518;52.408;13.060;2023-02-11T00:10:52;15.80;56.30
3017;DHT22;1518;52.408;13.060;2023-02-11T00:13:40;15.90;56.30
3017;DHT22;1518;52.408;13.060;2023-02-11T00:16:30;16.00;72.20
3017;DHT22;1518;52.408;13.060;2023-02-11T00:19:18;15.80;56.10
3017;DHT22;1518;52.408;13.060;2023-02-11T00:22:06;15.80;56.20
3017;DHT22;1518;52.408;13.060;2023-02-11T00:24:54;15.80;56.20
3017;DHT22;1518;52.408;13.060;2023-02-11T00:27:43;15.70;56.10
3017;DHT22;1518;52.408;13.060;2023-02-11T00:30:31;15.70;56.40
3017;DHT22;1518;52.408;13.060;2023-02-11T00:33:20;15.60;56.40
3017;DHT22;1518;52.408;13.060;2023-02-11T00:36:11;15.60;56.40
3017;DHT22;1518;52.408;13.060;2023-02-11T00:39:00;15.60;56.50
3017;DHT22;1518;52.408;13.060;2023-02-11T00:41:48;15.50;56.50
3017;DHT22;1518;52.408;13.060;2023-02-11T00:44:36;15.50;56.60
3017;DHT22;1518;52.408;13.060;2023-02-11T00:47:24;15.40;56.60
3017;DHT22;1518;52.408;13.060;2023-02-11T00:50:13;15.40;56.60
3017;DHT22;1518;52.408;13.060;2023-02-11T00:53:01;15.30;56.60
3017;DHT22;1518;52.408;13.060;2023-02-11T00:55:49;15.30;57.10
3017;DHT22;1518;52.408;13.060;2023-02-11T00:58:38;15.20;57.10
3017;DHT22;1518;52.408;13.060;2023-02-11T01:01:26;15.20;57.30
3017;DHT22;1518;52.408;13.060;2023-02-11T01:04:14;15.10;57.20
3017;DHT22;1518;52.408;13.060;2023-02-11T01:07:03;15.40;57.40
3017;DHT22;1518;52.408;13.060;2023-02-11T01:09:51;15.40;57.20
3017;DHT22;1518;52.408;13.060;2023-02-11T01:12:39;15.60;57.20
3017;DHT22;1518;52.408;13.060;2023-02-11T01:15:28;15.60;57.10
3017;DHT22;1518;52.408;13.060;2023-02-11T01:18:16;15.60;57.00
3017;DHT22;1518;52.408;13.060;2023-02-11T01:21:04;15.70;57.00
3017;DHT22;1518;52.408;13.060;2023-02-11T01:23:54;15.70;56.80
3017;DHT22;1518;52.408;13.060;2023-02-11T01:26:42;15.60;56.60
3017;DHT22;1518;52.408;13.060;2023-02-11T01:29:31;15.80;56.70
3017;DHT22;1518;52.408;13.060;2023-02-11T01:32:19;15.80;56.60
3017;DHT22;1518;52.408;13.060;2023-02-11T01:35:07;15.90;56.60
3017;DHT22;1518;52.408;13.060;2023-02-11T01:37:55;15.70;56.40
3017;DHT22;1518;52.408;13.060;2023-02-11T01:40:49;15.90;56.50
3017;DHT22;1518;52.408;13.060;2023-02-11T01:43:40;16.00;56.50
3017;DHT22;1518;52.408;13.060;2023-02-11T01:46:31;15.90;72.60
3017;DHT22;1518;52.408;13.060;2023-02-11T01:49:23;16.00;56.20
3017;DHT22;1518;52.408;13.060;2023-02-11T01:52:15;16.00;56.10
3017;DHT22;1518;52.408;13.060;2023-02-11T01:55:08;16.10;56.10
3017;DHT22;1518;52.408;13.060;2023-02-11T01:58:16;16.10;56.20
3017;DHT22;1518;52.408;13.060;2023-02-11T02:01:06;16.00;56.10
3017;DHT22;1518;52.408;13.060;2023-02-11T02:03:58;16.00;56.20
3017;DHT22;1518;52.408;13.060;2023-02-11T02:06:50;16.00;56.20
3017;DHT22;1518;52.408;13.060;2023-02-11T02:09:44;16.00;56.30
3017;DHT22;1518;52.408;13.060;2023-02-11T02:12:33;16.00;56.30
3017;DHT22;1518;52.408;13.060;2023-02-11T02:15:28;15.90;56.40
3017;DHT22;1518;52.408;13.060;2023-02-11T02:18:28;15.90;56.40
3017;DHT22;1518;52.408;13.060;2023-02-11T02:21:37;15.90;56.50
3017;DHT22;1518;52.408;13.060;2023-02-11T02:24:47;15.80;56.50
3017;DHT22;1518;52.408;13.060;2023-02-11T02:27:49;15.80;56.70
3017;DHT22;1518;52.408;13.060;2023-02-11T02:30:52;15.80;56.70
3017;DHT22;1518;52.408;13.060;2023-02-11T02:33:52;15.70;56.80
3017;DHT22;1518;52.408;13.060;2023-02-11T02:36:47;15.70;57.00
3017;DHT22;1518;52.408;13.060;2023-02-11T02:39:37;15.60;57.00
3017;DHT22;1518;52.408;13.060;2023-02-11T02:42:26;15.60;57.10
3017;DHT22;1518;52.408;13.060;2023-02-11T02:45:14;15.50;57.20
3017;DHT22;1518;52.408;13.060;2023-02-11T02:48:02;15.40;57.30
3017;DHT22;1518;52.408;13.060;2023-02-11T02:50:54;15.40;57.60
3017;DHT22;1518;52.408;13.060;2023-02-11T02:53:55;15.40;57.50
3017;DHT22;1518;52.408;13.060;2023-02-11T02:56:48;15.40;57.50
3017;DHT22;1518;52.408;13.060;2023-02-11T02:59:47;15.40;57.50
3017;DHT22;1518;52.408;13.060;2023-02-11T03:02:45;15.50;57.50
3017;DHT22;1518;52.408;13.060;2023-02-11T03:05:40;15.60;57.50
3017;DHT22;1518;52.408;13.060;2023-02-11T03:08:34;15.60;57.40
3017;DHT22;1518;52.408;13.060;2023-02-11T03:11:25;15.60;57.30
3017;DHT22;1518;52.408;13.060;2023-02-11T03:14:16;15.70;57.90
3017;DHT22;1518;52.408;13.060;2023-02-11T03:17:06;15.70;57.20
3017;DHT22;1518;52.408;13.060;2023-02-11T03:19:56;15.70;57.10
3017;DHT22;1518;52.408;13.060;2023-02-11T03:22:48;15.80;57.20
3017;DHT22;1518;52.408;13.060;2023-02-11T03:25:43;15.80;57.10
3017;DHT22;1518;52.408;13.060;2023-02-11T03:28:36;15.90;57.00
3017;DHT22;1518;52.408;13.060;2023-02-11T03:31:28;16.00;57.00
3017;DHT22;1518;52.408;13.060;2023-02-11T03:34:22;16.00;56.90
3017;DHT22;1518;52.408;13.060;2023-02-11T03:37:15;16.00;56.80
3017;DHT22;1518;52.408;13.060;2023-02-11T03:40:08;16.00;56.90
3017;DHT22;1518;52.408;13.060;2023-02-11T03:43:01;16.00;56.90
3017;DHT22;1518;52.408;13.060;2023-02-11T03:45:52;15.90;56.80
3017;DHT22;1518;52.408;13.060;2023-02-11T03:48:43;15.90;56.90
3017;DHT22;1518;52.408;13.060;2023-02-11T03:51:32;15.90;57.00
3017;DHT22;1518;52.408;13.060;2023-02-11T03:54:28;15.80;57.10
3017;DHT22;1518;52.408;13.060;2023-02-11T03:57:16;15.90;57.20
3017;DHT22;1518;52.408;13.060;2023-02-11T04:00:08;15.80;57.20
3017;DHT22;1518;52.408;13.060;2023-02-11T04:02:56;15.80;57.20
3017;DHT22;1518;52.408;13.060;2023-02-11T04:05:44;15.80;57.30
3017;DHT22;1518;52.408;13.060;2023-02-11T04:08:33;15.70;57.20
3017;DHT22;1518;52.408;13.060;2023-02-11T04:11:21;15.80;57.50
3017;DHT22;1518;52.408;13.060;2023-02-11T04:14:09;15.70;57.40
3017;DHT22;1518;52.408;13.060;2023-02-11T04:16:58;15.70;57.60
3017;DHT22;1518;52.408;13.060;2023-02-11T04:19:46;15.60;57.50
3017;DHT22;1518;52.408;13.060;2023-02-11T04:22:35;15.60;57.60
3017;DHT22;1518;52.408;13.060;2023-02-11T04:25:23;15.60;57.80
3017;DHT22;1518;52.408;13.060;2023-02-11T04:28:11;15.50;57.40
3017;DHT22;1518;52.408;13.060;2023-02-11T04:30:59;15.40;57.90
3017;DHT22;1518;52.408;13.060;2023-02-11T04:33:49;15.40;58.00
3017;DHT22;1518;52.408;13.060;2023-02-11T04:36:37;15.40;57.90
3017;DHT22;1518;52.408;13.060;2023-02-11T04:39:25;15.40;58.00
3017;DHT22;1518;52.408;13.060;2023-02-11T04:42:13;15.40;57.90
3017;DHT22;1518;52.408;13.060;2023-02-11T04:45:01;15.50;57.90
3017;DHT22;1518;52.408;13.060;2023-02-11T04:47:49;15.50;58.50
3017;DHT22;1518;52.408;13.060;2023-02-11T04:50:40;15.50;57.90
3017;DHT22;1518;52.408;13.060;2023-02-11T04:53:28;15.60;58.00
3017;DHT22;1518;52.408;13.060;2023-02-11T04:56:16;15.70;68.80
3017;DHT22;1518;52.408;13.060;2023-02-11T04:59:05;15.70;57.90
3017;DHT22;1518;52.408;13.060;2023-02-11T05:01:53;15.80;57.80
3017;DHT22;1518;52.408;13.060;2023-02-11T05:04:41;15.90;57.80
3017;DHT22;1518;52.408;13.060;2023-02-11T05:07:31;15.90;57.70
3017;DHT22;1518;52.408;13.060;2023-02-11T05:10:19;16.00;57.80
3017;DHT22;1518;52.408;13.060;2023-02-11T05:13:07;15.90;57.60
3017;DHT22;1518;52.408;13.060;2023-02-11T05:15:55;15.90;57.70
3017;DHT22;1518;52.408;13.060;2023-02-11T05:18:44;15.90;57.60
3017;DHT22;1518;52.408;13.060;2023-02-11T05:21:32;16.00;57.70
3017;DHT22;1518;52.408;13.060;2023-02-11T05:24:21;15.90;57.70
3017;DHT22;1518;52.408;13.060;2023-02-11T05:27:09;15.90;57.80
3017;DHT22;1518;52.408;13.060;2023-02-11T05:29:57;15.80;57.80
3017;DHT22;1518;52.408;13.060;2023-02-11T05:32:46;15.80;57.90
3017;DHT22;1518;52.408;13.060;2023-02-11T05:35:34;15.80;58.10
3017;DHT22;1518;52.408;13.060;2023-02-11T05:38:22;15.70;58.00
3017;DHT22;1518;52.408;13.060;2023-02-11T05:41:11;15.70;58.10
3017;DHT22;1518;52.408;13.060;2023-02-11T05:43:59;15.60;58.30
3017;DHT22;1518;52.408;13.060;2023-02-11T05:46:47;15.60;58.90
3017;DHT22;1518;52.408;13.060;2023-02-11T05:49:35;15.60;58.60
3017;DHT22;1518;52.408;13.060;2023-02-11T05:52:24;15.50;58.30
3017;DHT22;1518;52.408;13.060;2023-02-11T05:55:12;15.40;58.60
3017;DHT22;1518;52.408;13.060;2023-02-11T05:58:01;15.40;58.70
3017;DHT22;1518;52.408;13.060;2023-02-11T06:00:49;15.50;58.80
3017;DHT22;1518;52.408;13.060;2023-02-11T06:03:37;15.40;58.60
3017;DHT22;1518;52.408;13.060;2023-02-11T06:06:26;16.10;75.90
3017;DHT22;1518;52.408;13.060;2023-02-11T06:09:14;15.50;58.60
3017;DHT22;1518;52.408;13.060;2023-02-11T06:12:03;15.60;58.80
3017;DHT22;1518;52.408;13.060;2023-02-11T06:14:52;15.60;58.90
3017;DHT22;1518;52.408;13.060;2023-02-11T06:17:40;15.70;58.80
3017;DHT22;1518;52.408;13.060;2023-02-11T06:20:28;15.70;58.70
3017;DHT22;1518;52.408;13.060;2023-02-11T06:23:16;15.60;58.80
3017;DHT22;1518;52.408;13.060;2023-02-11T06:26:06;15.70;58.70
3017;DHT22;1518;52.408;13.060;2023-02-11T06:28:54;15.70;58.60
3017;DHT22;1518;52.408;13.060;2023-02-11T06:31:44;15.80;58.50
3017;DHT22;1518;52.408;13.060;2023-02-11T06:34:32;15.80;58.40
3017;DHT22;1518;52.408;13.060;2023-02-11T06:37:20;15.90;58.50
3017;DHT22;1518;52.408;13.060;2023-02-11T06:40:09;15.90;58.40
3017;DHT22;1518;52.408;13.060;2023-02-11T06:42:58;15.90;58.50
3017;DHT22;1518;52.408;13.060;2023-02-11T06:45:51;15.90;58.60
3017;DHT22;1518;52.408;13.060;2023-02-11T06:48:41;15.80;58.60
3017;DHT22;1518;52.408;13.060;2023-02-11T06:51:30;15.90;58.70
3017;DHT22;1518;52.408;13.060;2023-02-11T06:54:18;15.80;58.50
3017;DHT22;1518;52.408;13.060;2023-02-11T06:57:07;15.80;58.60
3017;DHT22;1518;52.408;13.060;2023-02-11T06:59:55;15.90;58.80
3017;DHT22;1518;52.408;13.060;2023-02-11T07:02:43;15.80;58.80
3017;DHT22;1518;52.408;13.060;2023-02-11T07:05:32;15.80;58.80
3017;DHT22;1518;52.408;13.060;2023-02-11T07:08:21;15.70;58.80
3017;DHT22;1518;52.408;13.060;2023-02-11T07:11:09;15.70;58.80
3017;DHT22;1518;52.408;13.060;2023-02-11T07:14:00;15.70;58.90
3017;DHT22;1518;52.408;13.060;2023-02-11T07:16:48;15.70;59.00
3017;DHT22;1518;52.408;13.060;2023-02-11T07:19:36;15.60;59.10
3017;DHT22;1518;52.408;13.060;2023-02-11T07:22:26;15.60;59.20
3017;DHT22;1518;52.408;13.060;2023-02-11T07:25:14;15.50;59.10
3017;DHT22;1518;52.408;13.060;2023-02-11T07:28:02;15.50;59.40
3017;DHT22;1518;52.408;13.060;2023-02-11T07:30:51;15.50;60.20
3017;DHT22;1518;52.408;13.060;2023-02-11T07:33:39;15.40;59.50
3017;DHT22;1518;52.408;13.060;2023-02-11T07:36:29;15.30;75.40
3017;DHT22;1518;52.408;13.060;2023-02-11T07:39:19;15.50;59.60
3017;DHT22;1518;52.408;13.060;2023-02-11T07:42:08;15.50;59.70
3017;DHT22;1518;52.408;13.060;2023-02-11T07:44:56;15.60;59.70
3017;DHT22;1518;52.408;13.060;2023-02-11T07:47:44;15.60;59.70
3017;DHT22;1518;52.408;13.060;2023-02-11T07:50:32;15.60;59.70
3017;DHT22;1518;52.408;13.060;2023-02-11T07:53:20;15.70;59.40
3017;DHT22;1518;52.408;13.060;2023-02-11T07:56:11;15.80;59.50
3017;DHT22;1518;52.408;13.060;2023-02-11T07:59:01;15.80;59.40
3017;DHT22;1518;52.408;13.060;2023-02-11T08:01:50;15.90;59.40
3017;DHT22;1518;52.408;13.060;2023-02-11T08:04:38;15.90;59.40
3017;DHT22;1518;52.408;13.060;2023-02-11T08:07:26;15.90;59.50
3017;DHT22;1518;52.408;13.060;2023-02-11T08:10:15;15.90;59.50
3017;DHT22;1518;52.408;13.060;2023-02-11T08:13:05;15.90;59.50
3017;DHT22;1518;52.408;13.060;2023-02-11T08:15:56;15.90;59.30
3017;DHT22;1518;52.408;13.060;2023-02-11T08:18:44;15.90;59.80
3017;DHT22;1518;52.408;13.060;2023-02-11T08:21:33;15.80;59.80
3017;DHT22;1518;52.408;13.060;2023-02-11T08:24:21;15.80;60.10
3017;DHT22;1518;52.408;13.060;2023-02-11T08:27:09;15.80;60.30
3017;DHT22;1518;52.408;13.060;2023-02-11T08:29:58;15.70;60.30
3017;DHT22;1518;52.408;13.060;2023-02-11T08:32:47;15.70;60.70
3017;DHT22;1518;52.408;13.060;2023-02-11T08:35:35;15.70;60.60
3017;DHT22;1518;52.408;13.060;2023-02-11T08:38:25;15.60;60.40
3017;DHT22;1518;52.408;13.060;2023-02-11T08:41:13;15.60;60.30
3017;DHT22;1518;52.408;13.060;2023-02-11T08:44:02;15.60;60.60
3017;DHT22;1518;52.408;13.060;2023-02-11T08:46:52;15.60;60.40
3017;DHT22;1518;52.408;13.060;2023-02-11T08:49:40;15.50;60.80
3017;DHT22;1518;52.408;13.060;2023-02-11T08:52:28;15.50;60.70
3017;DHT22;1518;52.408;13.060;2023-02-11T08:55:16;15.50;60.80
3017;DHT22;1518;52.408;13.060;2023-02-11T08:58:04;15.60;60.90
3017;DHT22;1518;52.408;13.060;2023-02-11T09:00:52;15.50;60.80
3017;DHT22;1518;52.408;13.060;2023-02-11T09:03:42;15.60;60.70
3017;DHT22;1518;52.408;13.060;2023-02-11T09:06:30;15.80;77.20
3017;DHT22;1518;52.408;13.060;2023-02-11T09:09:18;15.60;61.60
3017;DHT22;1518;52.408;13.060;2023-02-11T09:12:07;15.60;60.70
3017;DHT22;1518;52.408;13.060;2023-02-11T09:14:55;15.70;60.80
3017;DHT22;1518;52.408;13.060;2023-02-11T09:17:43;15.80;60.60
3017;DHT22;1518;52.408;13.060;2023-02-11T09:20:32;15.80;60.90
3017;DHT22;1518;52.408;13.060;2023-02-11T09:23:20;15.80;60.70
3017;DHT22;1518;52.408;13.060;2023-02-11T09:26:12;15.90;60.70
3017;DHT22;1518;52.408;13.060;2023-02-11T09:29:02;15.80;60.50
3017;DHT22;1518;52.408;13.060;2023-02-11T09:31:50;15.90;61.60
3017;DHT22;1518;52.408;13.060;2023-02-11T09:34:38;15.70;62.20
3017;DHT22;1518;52.408;13.060;2023-02-11T09:37:28;15.80;60.80
3017;DHT22;1518;52.408;13.060;2023-02-11T09:40:16;15.80;60.80
3017;DHT22;1518;52.408;13.060;2023-02-11T09:43:07;15.80;61.10
3017;DHT22;1518;52.408;13.060;2023-02-11T09:45:58;15.80;61.00
3017;DHT22;1518;52.408;13.060;2023-02-11T09:48:49;15.70;61.10
3017;DHT22;1518;52.408;13.060;2023-02-11T09:51:41;15.70;61.00
3017;DHT22;1518;52.408;13.060;2023-02-11T09:54:36;15.80;61.60
3017;DHT22;1518;52.408;13.060;2023-02-11T09:57:29;15.80;61.50
3017;DHT22;1518;52.408;13.060;2023-02-11T10:00:21;15.70;61.70
3017;DHT22;1518;52.408;13.060;2023-02-11T10:03:25;15.70;61.10
3017;DHT22;1518;52.408;13.060;2023-02-11T10:06:28;15.70;75.10
3017;DHT22;1518;52.408;13.060;2023-02-11T10:09:32;15.60;61.30
3017;DHT22;1518;52.408;13.060;2023-02-11T10:12:39;15.60;61.10
3017;DHT22;1518;52.408;13.060;2023-02-11T10:15:36;15.50;61.70
3017;DHT22;1518;52.408;13.060;2023-02-11T10:18:41;15.50;61.80
3017;DHT22;1518;52.408;13.060;2023-02-11T10:21:37;15.50;61.60
3017;DHT22;1518;52.408;13.060;2023-02-11T10:24:27;15.50;61.60
3017;DHT22;1518;52.408;13.060;2023-02-11T10:27:19;15.50;61.40
3017;DHT22;1518;52.408;13.060;2023-02-11T10:30:18;15.50;62.40
3017;DHT22;1518;52.408;13.060;2023-02-11T10:33:13;15.60;61.90
3017;DHT22;1518;52.408;13.060;2023-02-11T10:36:02;15.60;61.70
3017;DHT22;1518;52.408;13.060;2023-02-11T10:38:50;15.60;61.70
3017;DHT22;1518;52.408;13.060;2023-02-11T10:41:40;15.70;61.70
3017;DHT22;1518;52.408;13.060;2023-02-11T10:44:33;15.80;62.20
3017;DHT22;1518;52.408;13.060;2023-02-11T10:47:26;15.70;61.70
3017;DHT22;1518;52.408;13.060;2023-02-11T10:50:21;15.80;61.80
3017;DHT22;1518;52.408;13.060;2023-02-11T10:53:16;15.80;61.50
3017;DHT22;1518;52.408;13.060;2023-02-11T10:56:09;15.90;61.60
3017;DHT22;1518;52.408;13.060;2023-02-11T10:58:59;15.90;61.70
3017;DHT22;1518;52.408;13.060;2023-02-11T11:01:52;15.90;61.70
3017;DHT22;1518;52.408;13.060;2023-02-11T11:04:42;15.90;62.10
3017;DHT22;1518;52.408;13.060;2023-02-11T11:07:32;15.90;62.20
3017;DHT22;1518;52.408;13.060;2023-02-11T11:10:37;15.90;61.90
3017;DHT22;1518;52.408;13.060;2023-02-11T11:13:31;15.80;62.30
3017;DHT22;1518;52.408;13.060;2023-02-11T11:16:22;15.80;62.10
3017;DHT22;1518;52.408;13.060;2023-02-11T11:19:20;15.80;62.30
3017;DHT22;1518;52.408;13.060;2023-02-11T11:22:19;15.70;62.20
3017;DHT22;1518;52.408;13.060;2023-02-11T11:25:20;15.70;62.10
3017;DHT22;1518;52.408;13.060;2023-02-11T11:28:19;15.70;62.20
3017;DHT22;1518;52.408;13.060;2023-02-11T11:31:12;15.60;62.10
3017;DHT22;1518;52.408;13.060;2023-02-11T11:34:20;15.70;63.00
3017;DHT22;1518;52.408;13.060;2023-02-11T11:37:12;15.70;79.70
3017;DHT22;1518;52.408;13.060;2023-02-11T11:40:07;15.60;62.70
3017;DHT22;1518;52.408;13.060;2023-02-11T11:43:05;15.50;62.60
3017;DHT22;1518;52.408;13.060;2023-02-11T11:45:54;15.60;63.10
3017;DHT22;1518;52.408;13.060;2023-02-11T11:48:46;15.60;62.80
3017;DHT22;1518;52.408;13.060;2023-02-11T11:51:35;15.60;62.90
3017;DHT22;1518;52.408;13.060;2023-02-11T11:54:28;15.70;62.60
3017;DHT22;1518;52.408;13.060;2023-02-11T11:57:22;15.70;63.10
3017;DHT22;1518;52.408;13.060;2023-02-11T12:00:18;15.80;63.20
3017;DHT22;1518;52.408;13.060;2023-02-11T12:03:41;15.90;62.60
3017;DHT22;1518;52.408;13.060;2023-02-11T12:06:42;15.90;63.10
3017;DHT22;1518;52.408;13.060;2023-02-11T12:09:37;16.10;62.90
3017;DHT22;1518;52.408;13.060;2023-02-11T12:12:39;16.10;62.80
3017;DHT22;1518;52.408;13.060;2023-02-11T12:15:37;16.10;62.60
3017;DHT22;1518;52.408;13.060;2023-02-11T12:21:55;16.00;62.80
3017;DHT22;1518;52.408;13.060;2023-02-11T12:24:59;16.10;63.30
3017;DHT22;1518;52.408;13.060;2023-02-11T12:27:56;16.10;62.90
3017;DHT22;1518;52.408;13.060;2023-02-11T12:31:05;16.10;63.30
3017;DHT22;1518;52.408;13.060;2023-02-11T12:34:23;16.00;63.00
3017;DHT22;1518;52.408;13.060;2023-02-11T12:37:28;16.00;63.70
3017;DHT22;1518;52.408;13.060;2023-02-11T12:40:26;15.90;63.40
3017;DHT22;1518;52.408;13.060;2023-02-11T12:43:22;15.80;64.70
3017;DHT22;1518;52.408;13.060;2023-02-11T12:46:31;15.80;63.90
3017;DHT22;1518;52.408;13.060;2023-02-11T12:49:45;15.80;64.50
3017;DHT22;1518;52.408;13.060;2023-02-11T12:52:53;15.80;63.80
3017;DHT22;1518;52.408;13.060;2023-02-11T12:55:47;15.80;64.50
3017;DHT22;1518;52.408;13.060;2023-02-11T12:58:37;15.80;64.90
3017;DHT22;1518;52.408;13.060;2023-02-11T13:01:35;15.70;64.00
3017;DHT22;1518;52.408;13.060;2023-02-11T13:04:31;15.70;63.80
3017;DHT22;1518;52.408;13.060;2023-02-11T13:07:23;17.10;65.40
3017;DHT22;1518;52.408;13.060;2023-02-11T13:10:24;15.60;64.10
3017;DHT22;1518;52.408;13.060;2023-02-11T13:13:18;15.60;64.80
3017;DHT22;1518;52.408;13.060;2023-02-11T13:16:29;15.60;64.00
3017;DHT22;1518;52.408;13.060;2023-02-11T13:19:24;15.60;64.40
3017;DHT22;1518;52.408;13.060;2023-02-11T13:22:18;15.60;63.50
3017;DHT22;1518;52.408;13.060;2023-02-11T13:25:18;15.70;63.80
3017;DHT22;1518;52.408;13.060;2023-02-11T13:28:22;15.70;64.20
3017;DHT22;1518;52.408;13.060;2023-02-11T13:31:13;15.80;64.20
3017;DHT22;1518;52.408;13.060;2023-02-11T13:34:22;15.80;64.20
3017;DHT22;1518;52.408;13.060;2023-02-11T13:37:19;15.70;80.70
3017;DHT22;1518;52.408;13.060;2023-02-11T13:40:20;15.90;63.80
3017;DHT22;1518;52.408;13.060;2023-02-11T13:43:21;15.90;64.10
3017;DHT22;1518;52.408;13.060;2023-02-11T13:46:11;15.90;63.70
3017;DHT22;1518;52.408;13.060;2023-02-11T13:49:00;15.90;64.40
3017;DHT22;1518;52.408;13.060;2023-02-11T13:51:48;15.90;64.20
3017;DHT22;1518;52.408;13.060;2023-02-11T13:54:38;15.90;64.00
3017;DHT22;1518;52.408;13.060;2023-02-11T13:57:30;16.00;64.30
3017;DHT22;1518;52.408;13.060;2023-02-11T14:00:48;15.90;64.30
3017;DHT22;1518;52.408;13.060;2023-02-11T14:03:39;16.00;64.70
3017;DHT22;1518;52.408;13.060;2023-02-11T14:07:26;15.80;82.40
3017;DHT22;1518;52.408;13.060;2023-02-11T14:10:49;15.80;64.50
3017;DHT22;1518;52.408;13.060;2023-02-11T14:14:00;15.90;64.80
3017;DHT22;1518;52.408;13.060;2023-02-11T14:17:28;15.80;64.90
3017;DHT22;1518;52.408;13.060;2023-02-11T14:20:39;15.80;66.40
3017;DHT22;1518;52.408;13.060;2023-02-11T14:23:31;15.70;64.90
3017;DHT22;1518;52.408;13.060;2023-02-11T14:26:32;15.70;65.10
3017;DHT22;1518;52.408;13.060;2023-02-11T14:29:26;15.60;65.20
3017;DHT22;1518;52.408;13.060;2023-02-11T14:32:28;15.60;65.30
3017;DHT22;1518;52.408;13.060;2023-02-11T14:35:23;15.60;65.30
3017;DHT22;1518;52.408;13.060;2023-02-11T14:38:20;15.60;65.40
3017;DHT22;1518;52.408;13.060;2023-02-11T14:41:18;15.70;65.20
3017;DHT22;1518;52.408;13.060;2023-02-11T14:44:13;15.70;65.50
3017;DHT22;1518;52.408;13.060;2023-02-11T14:47:03;15.70;81.70
3017;DHT22;1518;52.408;13.060;2023-02-11T14:49:52;15.80;65.10
3017;DHT22;1518;52.408;13.060;2023-02-11T14:52:41;15.80;65.90
3017;DHT22;1518;52.408;13.060;2023-02-11T14:55:31;15.80;65.60
3017;DHT22;1518;52.408;13.060;2023-02-11T14:58:23;15.90;65.80
3017;DHT22;1518;52.408;13.060;2023-02-11T15:01:23;16.00;65.00
3017;DHT22;1518;52.408;13.060;2023-02-11T15:04:22;16.10;65.50
3017;DHT22;1518;52.408;13.060;2023-02-11T15:07:12;16.30;82.70
3017;DHT22;1518;52.408;13.060;2023-02-11T15:10:01;16.10;65.90
3017;DHT22;1518;52.408;13.060;2023-02-11T15:12:49;16.10;66.30
3017;DHT22;1518;52.408;13.060;2023-02-11T15:15:39;16.10;65.60
3017;DHT22;1518;52.408;13.060;2023-02-11T15:18:33;16.10;66.20
3017;DHT22;1518;52.408;13.060;2023-02-11T15:21:24;16.00;65.80
3017;DHT22;1518;52.408;13.060;2023-02-11T15:24:22;16.00;65.60
3017;DHT22;1518;52.408;13.060;2023-02-11T15:27:12;15.70;81.80
3017;DHT22;1518;52.408;13.060;2023-02-11T15:30:01;16.00;65.40
3017;DHT22;1518;52.408;13.060;2023-02-11T15:32:52;16.00;65.60
3017;DHT22;1518;52.408;13.060;2023-02-11T15:35:44;15.90;65.40
3017;DHT22;1518;52.408;13.060;2023-02-11T15:38:32;15.90;65.90
3017;DHT22;1518;52.408;13.060;2023-02-11T15:41:35;15.90;65.90
3017;DHT22;1518;52.408;13.060;2023-02-11T15:44:27;15.90;66.10
3017;DHT22;1518;52.408;13.060;2023-02-11T15:47:18;16.00;84.10
3017;DHT22;1518;52.408;13.060;2023-02-11T15:50:19;15.80;66.10
3017;DHT22;1518;52.408;13.060;2023-02-11T15:53:22;15.90;66.40
3017;DHT22;1518;52.408;13.060;2023-02-11T15:56:15;15.80;65.90
3017;DHT22;1518;52.408;13.060;2023-02-11T15:59:10;15.70;66.20
3017;DHT22;1518;52.408;13.060;2023-02-11T16:02:06;15.70;65.80
3017;DHT22;1518;52.408;13.060;2023-02-11T16:04:56;15.70;65.90
3017;DHT22;1518;52.408;13.060;2023-02-11T16:07:48;15.70;66.20
3017;DHT22;1518;52.408;13.060;2023-02-11T16:10:37;15.60;66.40
3017;DHT22;1518;52.408;13.060;2023-02-11T16:13:26;15.70;66.20
3017;DHT22;1518;52.408;13.060;2023-02-11T16:16:17;15.60;66.40
3017;DHT22;1518;52.408;13.060;2023-02-11T16:19:16;15.70;66.30
3017;DHT22;1518;52.408;13.060;2023-02-11T16:22:08;15.70;65.80
3017;DHT22;1518;52.408;13.060;2023-02-11T16:24:58;15.70;66.20
3017;DHT22;1518;52.408;13.060;2023-02-11T16:27:48;15.80;66.00
3017;DHT22;1518;52.408;13.060;2023-02-11T16:30:38;15.80;66.20
3017;DHT22;1518;52.408;13.060;2023-02-11T16:33:26;15.80;67.00
3017;DHT22;1518;52.408;13.060;2023-02-11T16:36:15;15.90;66.50
3017;DHT22;1518;52.408;13.060;2023-02-11T16:39:04;15.90;66.60
3017;DHT22;1518;52.408;13.060;2023-02-11T16:41:53;15.90;67.00
3017;DHT22;1518;52.408;13.060;2023-02-11T16:44:42;16.00;66.70
3017;DHT22;1518;52.408;13.060;2023-02-11T16:47:30;15.90;66.60
3017;DHT22;1518;52.408;13.060;2023-02-11T16:50:20;15.90;66.50
3017;DHT22;1518;52.408;13.060;2023-02-11T16:53:08;16.00;67.00
3017;DHT22;1518;52.408;13.060;2023-02-11T16:55:57;15.90;66.60
3017;DHT22;1518;52.408;13.060;2023-02-11T16:58:46;15.90;66.10
3017;DHT22;1518;52.408;13.060;2023-02-11T17:01:36;15.90;67.00
3017;DHT22;1518;52.408;13.060;2023-02-11T17:04:27;15.90;66.50
3017;DHT22;1518;52.408;13.060;2023-02-11T17:07:16;15.90;67.00
3017;DHT22;1518;52.408;13.060;2023-02-11T17:10:12;15.80;67.10
3017;DHT22;1518;52.408;13.060;2023-02-11T17:13:01;15.80;66.90
3017;DHT22;1518;52.408;13.060;2023-02-11T17:15:52;15.80;67.40
3017;DHT22;1518;52.408;13.060;2023-02-11T17:18:40;15.70;67.30
3017;DHT22;1518;52.408;13.060;2023-02-11T17:21:28;15.70;67.20
3017;DHT22;1518;52.408;13.060;2023-02-11T17:24:18;15.70;66.90
3017;DHT22;1518;52.408;13.060;2023-02-11T17:27:08;15.60;66.40
3017;DHT22;1518;52.408;13.060;2023-02-11T17:29:56;15.60;66.70
3017;DHT22;1518;52.408;13.060;2023-02-11T17:32:45;15.60;67.10
3017;DHT22;1518;52.408;13.060;2023-02-11T17:35:34;15.60;67.80
3017;DHT22;1518;52.408;13.060;2023-02-11T17:38:25;15.60;67.60
3017;DHT22;1518;52.408;13.060;2023-02-11T17:41:13;15.70;67.40
3017;DHT22;1518;52.408;13.060;2023-02-11T17:44:01;15.70;67.80
3017;DHT22;1518;52.408;13.060;2023-02-11T17:46:49;15.80;67.60
3017;DHT22;1518;52.408;13.060;2023-02-11T17:49:39;15.80;67.50
3017;DHT22;1518;52.408;13.060;2023-02-11T17:52:27;15.80;67.10
3017;DHT22;1518;52.408;13.060;2023-02-11T17:55:16;15.90;67.50
3017;DHT22;1518;52.408;13.060;2023-02-11T17:58:04;15.90;66.80
3017;DHT22;1518;52.408;13.060;2023-02-11T18:00:56;15.90;66.80
3017;DHT22;1518;52.408;13.060;2023-02-11T18:03:45;15.90;67.00
3017;DHT22;1518;52.408;13.060;2023-02-11T18:06:34;16.00;67.40
3017;DHT22;1518;52.408;13.060;2023-02-11T18:09:22;16.00;67.20
3017;DHT22;1518;52.408;13.060;2023-02-11T18:12:10;16.00;67.00
3017;DHT22;1518;52.408;13.060;2023-02-11T18:14:58;16.00;66.90
3017;DHT22;1518;52.408;13.060;2023-02-11T18:17:46;15.90;67.30
3017;DHT22;1518;52.408;13.060;2023-02-11T18:20:35;15.90;67.30
3017;DHT22;1518;52.408;13.060;2023-02-11T18:23:25;15.80;67.40
3017;DHT22;1518;52.408;13.060;2023-02-11T18:26:15;15.90;68.00
3017;DHT22;1518;52.408;13.060;2023-02-11T18:29:03;15.80;67.70